Time;durP1;ratioP1;P1;durP2;ratioP2;P2;SDS_P1;SDS_P2;PMS_P1;PMS_P2;Temp;Humidity;BMP_temperature;BMP_pressure;BME280_temperature;BME280_humidity;BME280_pressure;Samples;Min_cycle;Max_cycle;Signal;HPM_P1;HPM_P2
2023/03/06 00:00:25;;;;;;;22.02;10.50;;;;;;;;;;5055891;28;20029;-77
2023/03/06 00:02:51;;;;;;;26.92;11.73;;;;;;;;;;5056454;28;20024;-75
2023/03/06 00:05:16;;;;;;;26.15;10.82;;;;;;;;;;5055942;28;20021;-75
2023/03/06 00:07:42;;;;;;;29.85;11.63;;;;;;;;;;5072904;28;20025;-75
2023/03/06 00:10:10;;;;;;;23.75;10.73;;;;;;;;;;5072770;28;20439;-76
2023/03/06 00:12:35;;;;;;;21.05;10.70;;;;;;;;;;5040486;28;20124;-75
2023/03/06 00:15:01;;;;;;;29.50;11.02;;;;;;;;;;5077948;28;20060;-74
2023/03/06 00:17:27;;;;;;;27.40;11.80;;;;;;;;;;5076570;28;20119;-75
2023/03/06 00:19:52;;;;;;;26.25;11.73;;;;;;;;;;5059969;28;20020;-76
2023/03/06 00:22:18;;;;;;;23.77;11.18;;;;;;;;;;5077964;28;20556;-75
2023/03/06 00:24:43;;;;;;;20.90;10.60;;;;;;;;;;5077853;28;20513;-75
2023/03/06 00:27:08;;;;;;;26.27;10.77;;;;;;;;;;5059752;28;20504;-75
2023/03/06 00:29:34;;;;;;;27.67;11.27;;;;;;;;;;5076507;28;20028;-76
2023/03/06 00:32:00;;;;;;;22.42;9.82;;;;;;;;;;5076559;28;20032;-75
2023/03/06 00:34:25;;;;;;;23.25;10.32;;;;;;;;;;5059573;28;20434;-74
2023/03/06 00:36:51;;;;;;;23.48;11.05;;;;;;;;;;5072227;28;20123;-74
2023/03/06 00:39:16;;;;;;;21.58;10.02;;;;;;;;;;5075736;28;20028;-74
2023/03/06 00:41:42;;;;;;;22.70;10.30;;;;;;;;;;5076962;28;20028;-74
2023/03/06 00:44:07;;;;;;;22.60;9.38;;;;;;;;;;5076091;28;20032;-73
2023/03/06 00:46:33;;;;;;;24.52;10.55;;;;;;;;;;5076321;28;20438;-73
2023/03/06 00:48:58;;;;;;;19.45;9.27;;;;;;;;;;5059425;28;20032;-74
2023/03/06 00:51:24;;;;;;;19.17;9.70;;;;;;;;;;5077163;28;20035;-74
2023/03/06 00:53:49;;;;;;;21.48;9.90;;;;;;;;;;5077007;28;20028;-74
2023/03/06 00:56:14;;;;;;;21.38;9.77;;;;;;;;;;5075878;28;20041;-74
2023/03/06 00:58:40;;;;;;;21.23;10.02;;;;;;;;;;5077220;28;20036;-74
2023/03/06 01:01:05;;;;;;;19.70;9.07;;;;;;;;;;5076985;28;20039;-74
2023/03/06 01:03:31;;;;;;;22.23;10.10;;;;;;;;;;5076944;28;20038;-73
2023/03/06 01:05:56;;;;;;;18.85;8.98;;;;;;;;;;5076815;28;20078;-74
2023/03/06 01:08:22;;;;;;;21.02;9.75;;;;;;;;;;5075678;28;20082;-74
2023/03/06 01:10:47;;;;;;;15.88;8.05;;;;;;;;;;5076786;28;20028;-73
2023/03/06 01:13:12;;;;;;;18.45;8.57;;;;;;;;;;5058828;28;20102;-74
2023/03/06 01:15:38;;;;;;;20.48;8.70;;;;;;;;;;5075808;28;20029;-74
2023/03/06 01:18:03;;;;;;;17.08;7.80;;;;;;;;;;5058906;28;20028;-75
2023/03/06 01:20:29;;;;;;;16.40;7.78;;;;;;;;;;5058985;28;20028;-77
2023/03/06 01:22:55;;;;;;;19.08;8.18;;;;;;;;;;5076927;28;20040;-76
2023/03/06 01:25:22;;;;;;;18.35;8.25;;;;;;;;;;5058166;28;20555;-73
2023/03/06 01:27:47;;;;;;;17.45;8.40;;;;;;;;;;5076875;28;20063;-76
2023/03/06 01:30:13;;;;;;;23.55;8.50;;;;;;;;;;5075662;28;20024;-75
2023/03/06 01:32:38;;;;;;;21.08;8.73;;;;;;;;;;5058879;28;20559;-75
2023/03/06 01:35:05;;;;;;;20.13;8.52;;;;;;;;;;5075614;28;20446;-76
2023/03/06 01:37:30;;;;;;;18.08;7.70;;;;;;;;;;5075756;28;20032;-75
2023/03/06 01:39:56;;;;;;;15.57;8.25;;;;;;;;;;5070833;28;20086;-76
2023/03/06 01:42:21;;;;;;;19.00;8.88;;;;;;;;;;5058437;28;20446;-76
2023/03/06 01:45:07;;;;;;;18.67;7.82;;;;;;;;;;5075118;28;20024;-76
2023/03/06 01:47:33;;;;;;;15.73;7.47;;;;;;;;;;5076147;28;20394;-75
2023/03/06 01:49:58;;;;;;;17.75;8.43;;;;;;;;;;5075242;28;20025;-75
2023/03/06 01:52:27;;;;;;;17.83;7.82;;;;;;;;;;5074908;28;20028;-76
2023/03/06 01:54:58;;;;;;;16.42;7.38;;;;;;;;;;5058154;28;20028;-75
2023/03/06 01:57:32;;;;;;;18.80;8.07;;;;;;;;;;5074911;28;20558;-75
2023/03/06 02:00:06;;;;;;;14.88;7.50;;;;;;;;;;5058238;28;20035;-75
2023/03/06 02:02:31;;;;;;;17.15;7.55;;;;;;;;;;5074949;28;20571;-75
2023/03/06 02:04:56;;;;;;;15.82;7.28;;;;;;;;;;5074686;28;20032;-75
2023/03/06 02:07:22;;;;;;;17.23;7.53;;;;;;;;;;5041462;28;20429;-75
2023/03/06 02:09:47;;;;;;;13.05;6.25;;;;;;;;;;5057789;28;20478;-75
2023/03/06 02:12:17;;;;;;;15.48;7.53;;;;;;;;;;5075728;28;20347;-75
2023/03/06 02:14:43;;;;;;;13.75;6.97;;;;;;;;;;5058061;28;20081;-75
2023/03/06 02:17:09;;;;;;;13.52;7.13;;;;;;;;;;5074643;28;20037;-76
2023/03/06 02:19:57;;;;;;;15.68;7.07;;;;;;;;;;5074606;28;20020;-75
2023/03/06 02:22:22;;;;;;;12.68;7.18;;;;;;;;;;5074196;28;20048;-75
2023/03/06 02:24:53;;;;;;;17.63;8.20;;;;;;;;;;5057486;28;20465;-75
2023/03/06 02:27:18;;;;;;;19.25;8.18;;;;;;;;;;5074171;28;20124;-75
2023/03/06 02:29:44;;;;;;;18.80;9.35;;;;;;;;;;5075246;28;20111;-76
2023/03/06 02:32:09;;;;;;;21.73;9.73;;;;;;;;;;5075403;28;20033;-76
2023/03/06 02:34:38;;;;;;;22.38;10.35;;;;;;;;;;5057385;28;20082;-75
2023/03/06 02:37:07;;;;;;;20.65;10.48;;;;;;;;;;5074250;28;20449;-75
2023/03/06 02:39:33;;;;;;;26.97;10.93;;;;;;;;;;5055952;28;20029;-75
2023/03/06 02:41:58;;;;;;;24.17;10.45;;;;;;;;;;5055379;28;20031;-75
2023/03/06 02:44:24;;;;;;;25.52;11.07;;;;;;;;;;5057030;28;20032;-76
2023/03/06 02:46:49;;;;;;;21.15;10.15;;;;;;;;;;5073687;28;20040;-75
2023/03/06 02:49:15;;;;;;;20.77;10.30;;;;;;;;;;5074963;28;20370;-76
2023/03/06 02:51:40;;;;;;;20.98;9.80;;;;;;;;;;5075049;28;20021;-75
2023/03/06 02:54:06;;;;;;;24.48;10.05;;;;;;;;;;5073915;28;20393;-75
2023/03/06 02:56:31;;;;;;;17.88;8.23;;;;;;;;;;5074475;28;20149;-75
2023/03/06 02:58:56;;;;;;;20.35;8.98;;;;;;;;;;5073525;28;20584;-75
2023/03/06 03:01:22;;;;;;;24.60;10.18;;;;;;;;;;5056904;28;20030;-76
2023/03/06 03:03:47;;;;;;;17.58;8.98;;;;;;;;;;5073457;28;20462;-76
2023/03/06 03:06:13;;;;;;;19.85;9.05;;;;;;;;;;5074576;28;20051;-75
2023/03/06 03:08:38;;;;;;;19.35;9.07;;;;;;;;;;5074386;28;20038;-76
2023/03/06 03:11:04;;;;;;;23.00;11.32;;;;;;;;;;5074675;28;20095;-76
2023/03/06 03:13:29;;;;;;;21.60;9.50;;;;;;;;;;5074746;28;20044;-75
2023/03/06 03:16:08;;;;;;;20.48;9.25;;;;;;;;;;5056612;28;20039;-74
2023/03/06 03:18:34;;;;;;;25.45;9.65;;;;;;;;;;5056587;28;20028;-76
2023/03/06 03:20:59;;;;;;;21.63;9.45;;;;;;;;;;5056546;28;20039;-76
2023/03/06 03:23:25;;;;;;;21.60;10.32;;;;;;;;;;5073176;28;20451;-75
2023/03/06 03:25:50;;;;;;;24.52;10.35;;;;;;;;;;5073307;28;20067;-75
2023/03/06 03:28:16;;;;;;;23.30;9.73;;;;;;;;;;5074309;28;20406;-75
2023/03/06 03:30:41;;;;;;;21.00;9.55;;;;;;;;;;5056597;28;20434;-76
2023/03/06 03:33:07;;;;;;;20.35;8.73;;;;;;;;;;5056677;28;20393;-75
2023/03/06 03:35:32;;;;;;;20.40;9.52;;;;;;;;;;5056100;28;20442;-75
2023/03/06 03:37:58;;;;;;;22.02;9.60;;;;;;;;;;5106635;28;20041;-75
2023/03/06 03:40:23;;;;;;;21.52;9.57;;;;;;;;;;5074180;28;20032;-75
2023/03/06 03:42:48;;;;;;;19.75;9.50;;;;;;;;;;5032782;28;20025;-75
2023/03/06 03:45:14;;;;;;;20.35;8.98;;;;;;;;;;5052761;28;20028;-76
2023/03/06 03:47:39;;;;;;;19.35;9.27;;;;;;;;;;5053150;28;20369;-75
2023/03/06 03:50:06;;;;;;;21.15;9.50;;;;;;;;;;5035985;28;20454;-75
2023/03/06 03:52:31;;;;;;;22.23;9.57;;;;;;;;;;5053260;28;20032;-75
2023/03/06 03:54:57;;;;;;;27.60;10.13;;;;;;;;;;5052794;28;20021;-76
2023/03/06 03:57:22;;;;;;;22.65;10.27;;;;;;;;;;5035763;28;20048;-75
2023/03/06 03:59:49;;;;;;;19.10;9.05;;;;;;;;;;5054700;28;20072;-75
2023/03/06 04:02:15;;;;;;;20.58;9.10;;;;;;;;;;5086197;28;20473;-75
2023/03/06 04:04:41;;;;;;;19.27;9.60;;;;;;;;;;5052347;28;20044;-76
2023/03/06 04:07:06;;;;;;;23.27;10.30;;;;;;;;;;5036236;28;20029;-75
2023/03/06 04:09:32;;;;;;;23.35;10.27;;;;;;;;;;5036008;28;20059;-75
2023/03/06 04:11:57;;;;;;;21.13;10.32;;;;;;;;;;5035913;28;20029;-75
2023/03/06 04:14:23;;;;;;;24.88;11.20;;;;;;;;;;5052454;28;20098;-75
2023/03/06 04:16:48;;;;;;;23.85;10.63;;;;;;;;;;5053529;28;20029;-75
2023/03/06 04:19:13;;;;;;;23.35;10.32;;;;;;;;;;5052173;28;20025;-77
2023/03/06 04:21:39;;;;;;;27.55;10.93;;;;;;;;;;5035780;28;20024;-75
2023/03/06 04:24:05;;;;;;;25.45;10.90;;;;;;;;;;5053690;28;20459;-75
2023/03/06 04:26:30;;;;;;;25.27;12.02;;;;;;;;;;5052429;28;20033;-75
2023/03/06 04:28:57;;;;;;;27.83;12.27;;;;;;;;;;5052224;28;20024;-75
2023/03/06 04:31:22;;;;;;;28.50;11.68;;;;;;;;;;5052330;28;20433;-76
2023/03/06 04:33:49;;;;;;;25.58;11.93;;;;;;;;;;5052282;28;20021;-75
2023/03/06 04:36:29;;;;;;;27.10;10.70;;;;;;;;;;5036067;28;20037;-75
2023/03/06 04:38:54;;;;;;;23.05;11.13;;;;;;;;;;5036391;28;20132;-75
2023/03/06 04:41:20;;;;;;;29.92;12.52;;;;;;;;;;5052209;28;20045;-75
2023/03/06 04:43:45;;;;;;;29.40;12.82;;;;;;;;;;5020503;28;20036;-75
2023/03/06 04:46:11;;;;;;;34.22;14.02;;;;;;;;;;5072839;28;20020;-75
2023/03/06 04:48:36;;;;;;;38.22;14.63;;;;;;;;;;5072033;28;20032;-76
2023/03/06 04:51:02;;;;;;;32.90;13.38;;;;;;;;;;5055687;28;20123;-75
2023/03/06 04:53:27;;;;;;;31.00;13.65;;;;;;;;;;5055552;28;20024;-75
2023/03/06 04:55:53;;;;;;;33.90;13.52;;;;;;;;;;5072011;28;20040;-75
2023/03/06 04:58:19;;;;;;;35.88;13.40;;;;;;;;;;5055380;28;20440;-75
2023/03/06 05:00:45;;;;;;;30.63;14.25;;;;;;;;;;5076382;28;20029;-75
2023/03/06 05:03:10;;;;;;;35.22;14.50;;;;;;;;;;5075540;28;20054;-75
2023/03/06 05:05:35;;;;;;;32.50;14.18;;;;;;;;;;5075737;28;20033;-74
2023/03/06 05:08:01;;;;;;;33.63;14.45;;;;;;;;;;5075722;28;20021;-76
2023/03/06 05:10:26;;;;;;;40.20;16.42;;;;;;;;;;5076800;28;20073;-75
2023/03/06 05:12:52;;;;;;;33.63;14.98;;;;;;;;;;5074955;28;20108;-75
2023/03/06 05:15:17;;;;;;;37.55;15.57;;;;;;;;;;5076641;28;20406;-76
2023/03/06 05:17:43;;;;;;;36.03;15.23;;;;;;;;;;5075085;28;20533;-76
2023/03/06 05:20:09;;;;;;;30.13;15.13;;;;;;;;;;5058940;28;20028;-76
2023/03/06 05:22:34;;;;;;;33.40;16.08;;;;;;;;;;5075166;28;20024;-76
2023/03/06 05:25:00;;;;;;;36.60;15.77;;;;;;;;;;5075230;28;20365;-76
2023/03/06 05:27:26;;;;;;;35.92;14.82;;;;;;;;;;5058875;28;20034;-76
2023/03/06 05:29:52;;;;;;;41.38;17.02;;;;;;;;;;5059337;28;20033;-78
2023/03/06 05:32:17;;;;;;;37.17;16.33;;;;;;;;;;5074784;28;20025;-77
2023/03/06 05:34:43;;;;;;;33.20;15.52;;;;;;;;;;5076470;28;20028;-76
2023/03/06 05:37:08;;;;;;;33.78;15.23;;;;;;;;;;5076378;28;20033;-76
2023/03/06 05:39:33;;;;;;;32.33;14.90;;;;;;;;;;5076134;28;20461;-77
2023/03/06 05:41:59;;;;;;;36.45;14.88;;;;;;;;;;5075623;28;20086;-76
2023/03/06 05:44:30;;;;;;;35.28;16.45;;;;;;;;;;5073736;28;20033;-76
2023/03/06 05:46:55;;;;;;;;;;;;;;;;;;5054884;28;20040;-75
2023/03/06 05:49:21;;;;;;;34.65;14.20;;;;;;;;;;5066637;28;20279;-74
2023/03/06 05:51:46;;;;;;;29.45;14.13;;;;;;;;;;5069702;28;20450;-74
2023/03/06 05:54:11;;;;;;;33.20;15.30;;;;;;;;;;5067893;28;20040;-76
2023/03/06 05:56:37;;;;;;;43.53;15.52;;;;;;;;;;5042522;28;20037;-75
2023/03/06 05:59:03;;;;;;;40.70;17.27;;;;;;;;;;5063409;28;20029;-75
2023/03/06 06:01:29;;;;;;;44.47;17.25;;;;;;;;;;5062884;28;20207;-76
2023/03/06 06:03:56;;;;;;;45.28;17.67;;;;;;;;;;5072310;28;20039;-77
2023/03/06 06:06:47;;;;;;;42.88;17.23;;;;;;;;;;5063970;28;20040;-76
2023/03/06 06:09:12;;;;;;;38.78;16.40;;;;;;;;;;5066199;28;20097;-75
2023/03/06 06:11:38;;;;;;;40.15;16.85;;;;;;;;;;5062201;28;20032;-76
2023/03/06 06:14:03;;;;;;;40.58;16.23;;;;;;;;;;5068032;28;20025;-76
2023/03/06 06:16:29;;;;;;;34.50;14.18;;;;;;;;;;5061989;28;20040;-76
2023/03/06 06:18:56;;;;;;;38.42;15.85;;;;;;;;;;5066575;28;20378;-75
2023/03/06 06:21:21;;;;;;;33.40;14.60;;;;;;;;;;5059240;28;20124;-75
2023/03/06 06:23:47;;;;;;;36.40;15.55;;;;;;;;;;5064179;28;20445;-75
2023/03/06 06:26:13;;;;;;;30.85;13.63;;;;;;;;;;5059389;28;20044;-76
2023/03/06 06:28:39;;;;;;;37.55;15.70;;;;;;;;;;5060264;28;20111;-76
2023/03/06 06:31:11;;;;;;;32.28;14.75;;;;;;;;;;5060963;28;20426;-75
2023/03/06 06:33:43;;;;;;;36.88;16.08;;;;;;;;;;5062373;28;20227;-76
2023/03/06 06:36:16;;;;;;;37.65;16.23;;;;;;;;;;5061990;28;20117;-77
2023/03/06 06:38:42;;;;;;;35.33;14.50;;;;;;;;;;5050028;28;20520;-77
2023/03/06 06:41:08;;;;;;;34.03;16.00;;;;;;;;;;5062714;28;20033;-75
2023/03/06 06:43:33;;;;;;;47.25;20.60;;;;;;;;;;5067772;28;20066;-75
2023/03/06 06:45:59;;;;;;;45.28;18.20;;;;;;;;;;5065690;28;20067;-75
2023/03/06 06:48:25;;;;;;;43.13;18.27;;;;;;;;;;5061859;28;20032;-74
2023/03/06 06:50:55;;;;;;;47.90;17.58;;;;;;;;;;5065738;28;20028;-76
2023/03/06 06:53:20;;;;;;;52.22;18.92;;;;;;;;;;5068971;28;20481;-78
2023/03/06 06:55:46;;;;;;;43.10;16.63;;;;;;;;;;5065062;28;20108;-75
2023/03/06 06:58:12;;;;;;;36.40;14.25;;;;;;;;;;5062883;28;20064;-75
2023/03/06 07:00:55;;;;;;;37.75;15.18;;;;;;;;;;5052588;28;20474;-77
2023/03/06 07:03:20;;;;;;;36.25;15.73;;;;;;;;;;5050981;28;20037;-78
2023/03/06 07:05:54;;;;;;;33.72;14.68;;;;;;;;;;5053710;28;20436;-77
2023/03/06 07:08:39;;;;;;;34.50;13.80;;;;;;;;;;5072967;28;20032;-78
2023/03/06 07:11:09;;;;;;;33.40;14.65;;;;;;;;;;5053864;28;20036;-78
2023/03/06 07:13:34;;;;;;;38.47;15.90;;;;;;;;;;5052861;28;20083;-76
2023/03/06 07:16:13;;;;;;;37.75;16.30;;;;;;;;;;5069965;28;20024;-77
2023/03/06 07:18:40;;;;;;;43.03;18.30;;;;;;;;;;5071529;28;20115;-77
2023/03/06 07:21:07;;;;;;;42.45;19.00;;;;;;;;;;5072918;28;20036;-78
2023/03/06 07:23:33;;;;;;;42.60;17.15;;;;;;;;;;5069819;28;20024;-78
2023/03/06 07:26:02;;;;;;;47.42;17.75;;;;;;;;;;5053675;28;20082;-77
2023/03/06 07:28:29;;;;;;;51.35;19.95;;;;;;;;;;5056051;28;20056;-76
2023/03/06 07:30:54;;;;;;;55.30;21.83;;;;;;;;;;5069307;28;20036;-77
2023/03/06 07:33:26;;;;;;;52.83;21.00;;;;;;;;;;5074634;28;20032;-77
2023/03/06 07:35:53;;;;;;;58.60;21.38;;;;;;;;;;5073792;28;20116;-78
2023/03/06 07:38:28;;;;;;;56.58;21.38;;;;;;;;;;5075397;28;20038;-77
2023/03/06 07:40:54;;;;;;;65.80;24.98;;;;;;;;;;5067540;28;20446;-79
2023/03/06 07:43:19;;;;;;;66.85;24.08;;;;;;;;;;5057672;28;20032;-79
2023/03/06 07:45:45;;;;;;;74.63;26.10;;;;;;;;;;5070293;28;20453;-78
2023/03/06 07:48:17;;;;;;;65.70;24.80;;;;;;;;;;5079058;28;20580;-79
2023/03/06 07:50:59;;;;;;;63.90;22.60;;;;;;;;;;5073420;28;20046;-77
2023/03/06 07:53:25;;;;;;;267.90;98.57;;;;;;;;;;5041262;28;20020;-78
2023/03/06 07:55:51;;;;;;;58.70;24.48;;;;;;;;;;5077083;28;20409;-78
2023/03/06 07:58:16;;;;;;;64.35;23.50;;;;;;;;;;5071670;28;20028;-79
2023/03/06 08:00:42;;;;;;;54.65;21.40;;;;;;;;;;5073425;28;20028;-76
2023/03/06 08:03:09;;;;;;;87.28;35.72;;;;;;;;;;5074415;28;20036;-79
2023/03/06 08:05:41;;;;;;;54.70;21.63;;;;;;;;;;5052089;28;20051;-78
2023/03/06 08:08:06;;;;;;;54.42;21.48;;;;;;;;;;5073187;28;20339;-77
2023/03/06 08:10:32;;;;;;;50.75;20.83;;;;;;;;;;5069354;28;20031;-78
2023/03/06 08:12:57;;;;;;;54.63;19.13;;;;;;;;;;5070640;28;20029;-78
2023/03/06 08:15:23;;;;;;;47.15;18.98;;;;;;;;;;5103124;28;20461;-77
2023/03/06 08:17:49;;;;;;;52.47;18.55;;;;;;;;;;5072763;28;20034;-77
2023/03/06 08:20:15;;;;;;;53.42;18.30;;;;;;;;;;5057651;28;20468;-79
2023/03/06 08:22:41;;;;;;;42.58;17.98;;;;;;;;;;5078699;28;20486;-79
2023/03/06 08:25:07;;;;;;;50.35;18.75;;;;;;;;;;5073546;28;20082;-77
2023/03/06 08:27:32;;;;;;;49.00;19.00;;;;;;;;;;5076556;28;20174;-78
2023/03/06 08:29:58;;;;;;;46.97;18.40;;;;;;;;;;5072416;28;20424;-76
2023/03/06 08:32:24;;;;;;;48.22;18.20;;;;;;;;;;5071838;28;20104;-78
2023/03/06 08:34:50;;;;;;;51.30;20.55;;;;;;;;;;5073811;28;20108;-78
2023/03/06 08:37:23;;;;;;;52.53;22.10;;;;;;;;;;5103502;28;20044;-78
2023/03/06 08:39:48;;;;;;;46.13;18.42;;;;;;;;;;5065618;28;20029;-80
2023/03/06 08:42:17;;;;;;;38.85;16.95;;;;;;;;;;5079316;28;20115;-79
2023/03/06 08:44:42;;;;;;;44.22;19.33;;;;;;;;;;5075540;28;20439;-79
2023/03/06 08:47:08;;;;;;;53.97;23.77;;;;;;;;;;5076025;28;20032;-79
2023/03/06 08:49:34;;;;;;;45.42;21.60;;;;;;;;;;5111329;28;20032;-77
2023/03/06 08:52:00;;;;;;;54.67;23.65;;;;;;;;;;5077789;28;20585;-77
2023/03/06 08:54:25;;;;;;;51.05;22.27;;;;;;;;;;5078173;28;20021;-78
2023/03/06 08:56:57;;;;;;;47.92;19.05;;;;;;;;;;5069771;28;20032;-79
2023/03/06 08:59:23;;;;;;;51.95;16.50;;;;;;;;;;5044373;28;20034;-80
2023/03/06 09:01:52;;;;;;;59.90;17.55;;;;;;;;;;5097079;28;20177;-79
2023/03/06 09:04:18;;;;;;;40.00;15.90;;;;;;;;;;5064366;28;20035;-81
2023/03/06 09:06:44;;;;;;;36.65;13.27;;;;;;;;;;5060284;28;20123;-78
2023/03/06 09:09:09;;;;;;;41.30;15.98;;;;;;;;;;5078658;28;20411;-77
2023/03/06 09:11:35;;;;;;;34.97;14.77;;;;;;;;;;5074765;28;20023;-76
2023/03/06 09:14:02;;;;;;;43.75;15.65;;;;;;;;;;5083568;28;20093;-79
2023/03/06 09:16:28;;;;;;;39.47;15.10;;;;;;;;;;5070626;28;20031;-80
2023/03/06 09:18:54;;;;;;;43.05;15.10;;;;;;;;;;5062900;28;20367;-77
2023/03/06 09:21:20;;;;;;;43.40;16.75;;;;;;;;;;5034823;28;20557;-78
2023/03/06 09:23:46;;;;;;;45.03;16.25;;;;;;;;;;5052521;28;20104;-79
2023/03/06 09:26:11;;;;;;;36.60;15.00;;;;;;;;;;5057367;28;20444;-76
2023/03/06 09:29:01;;;;;;;38.50;14.20;;;;;;;;;;5071768;28;20028;-78
2023/03/06 09:31:27;;;;;;;46.72;14.80;;;;;;;;;;5067985;28;20636;-78
2023/03/06 09:33:52;;;;;;;84.18;32.28;;;;;;;;;;5076929;28;20025;-76
2023/03/06 09:36:25;;;;;;;66.53;24.42;;;;;;;;;;5074617;28;20373;-74
2023/03/06 09:38:54;;;;;;;45.95;18.15;;;;;;;;;;5075902;28;20048;-77
2023/03/06 09:41:26;;;;;;;45.90;15.15;;;;;;;;;;5074131;28;20477;-79
2023/03/06 09:44:03;;;;;;;45.50;15.93;;;;;;;;;;5065568;28;20029;-76
2023/03/06 09:47:04;;;;;;;51.10;17.80;;;;;;;;;;5041786;28;20089;-77
2023/03/06 09:50:08;;;;;;;47.35;16.52;;;;;;;;;;5061711;28;20139;-78
2023/03/06 09:53:13;;;;;;;52.25;16.05;;;;;;;;;;5077513;28;20036;-81
2023/03/06 09:55:39;;;;;;;55.53;16.48;;;;;;;;;;5076859;28;20157;-79
2023/03/06 09:58:26;;;;;;;43.17;15.02;;;;;;;;;;5082457;28;20553;-79
2023/03/06 10:01:17;;;;;;;44.55;16.02;;;;;;;;;;5062899;28;20035;-82
2023/03/06 10:04:06;;;;;;;40.40;15.70;;;;;;;;;;5079085;28;20115;-83
2023/03/06 10:06:47;;;;;;;51.05;15.45;;;;;;;;;;5072150;28;20450;-80
2023/03/06 10:09:25;;;;;;;50.92;17.23;;;;;;;;;;5065209;28;20100;-80
2023/03/06 10:12:23;;;;;;;44.35;16.55;;;;;;;;;;5075001;28;20008;-79
2023/03/06 10:15:00;;;;;;;49.75;16.58;;;;;;;;;;5068407;28;20044;-82
2023/03/06 10:17:25;;;;;;;45.70;16.83;;;;;;;;;;5069292;28;20037;-77
2023/03/06 10:19:51;;;;;;;51.53;17.65;;;;;;;;;;5051167;28;20504;-79
2023/03/06 10:22:38;;;;;;;81.50;28.27;;;;;;;;;;5052724;28;20033;-76
2023/03/06 10:25:19;;;;;;;50.97;19.02;;;;;;;;;;5075829;28;20084;-77
2023/03/06 10:27:57;;;;;;;55.38;19.88;;;;;;;;;;5077760;28;20032;-78
2023/03/06 10:30:51;;;;;;;44.88;15.25;;;;;;;;;;5075832;28;20039;-80
2023/03/06 10:33:20;;;;;;;49.03;16.13;;;;;;;;;;5069845;28;20040;-77
2023/03/06 10:35:49;;;;;;;48.72;17.73;;;;;;;;;;5076014;28;20119;-77
2023/03/06 10:38:30;;;;;;;54.40;17.30;;;;;;;;;;5074041;28;20036;-76
2023/03/06 10:41:11;;;;;;;45.70;17.52;;;;;;;;;;5073619;28;20035;-78
2023/03/06 10:44:02;;;;;;;50.90;18.98;;;;;;;;;;5067471;28;20127;-77
2023/03/06 10:46:35;;;;;;;48.78;18.75;;;;;;;;;;5066379;28;20024;-78
2023/03/06 10:49:03;;;;;;;47.40;17.10;;;;;;;;;;5062431;28;20090;-75
2023/03/06 10:51:29;;;;;;;50.00;17.33;;;;;;;;;;5063660;28;20025;-76
2023/03/06 10:53:58;;;;;;;50.42;18.02;;;;;;;;;;5051902;28;20029;-78
2023/03/06 10:56:34;;;;;;;42.78;17.05;;;;;;;;;;5068900;28;20060;-81
2023/03/06 10:59:24;;;;;;;41.00;17.15;;;;;;;;;;5065178;28;20020;-80
2023/03/06 11:01:54;;;;;;;47.92;17.20;;;;;;;;;;5063383;28;20028;-78
2023/03/06 11:04:26;;;;;;;51.00;18.80;;;;;;;;;;5065357;28;20120;-78
2023/03/06 11:07:13;;;;;;;50.53;20.33;;;;;;;;;;5052739;28;20049;-76
2023/03/06 11:09:38;;;;;;;51.17;19.25;;;;;;;;;;5056197;28;20032;-78
2023/03/06 11:12:33;;;;;;;49.63;19.27;;;;;;;;;;5062789;28;20114;-80
2023/03/06 11:15:22;;;;;;;46.15;17.95;;;;;;;;;;5072713;28;20525;-80
2023/03/06 11:17:53;;;;;;;50.30;18.10;;;;;;;;;;5072386;28;20045;-77
2023/03/06 11:20:31;;;;;;;51.03;20.48;;;;;;;;;;5076038;28;20040;-78
2023/03/06 11:23:34;;;;;;;50.13;18.13;;;;;;;;;;5063885;28;20028;-80
2023/03/06 11:26:18;;;;;;;47.20;16.58;;;;;;;;;;5072871;28;20123;-78
2023/03/06 11:29:06;;;;;;;47.83;17.13;;;;;;;;;;5073712;28;20366;-78
2023/03/06 11:31:33;;;;;;;55.63;18.98;;;;;;;;;;5066134;28;20517;-77
2023/03/06 11:34:01;;;;;;;45.47;17.67;;;;;;;;;;5048723;28;20028;-77
2023/03/06 11:36:39;;;;;;;45.97;17.20;;;;;;;;;;5054037;28;20029;-77
2023/03/06 11:39:50;;;;;;;61.03;17.55;;;;;;;;;;5050856;28;20033;-77
2023/03/06 11:42:30;;;;;;;44.42;15.98;;;;;;;;;;5057384;28;20076;-77
2023/03/06 11:45:14;;;;;;;;;;;;;;;;;;5068069;28;20025;-77
2023/03/06 11:47:43;;;;;;;49.75;15.43;;;;;;;;;;5066872;28;19964;-77
2023/03/06 11:50:11;;;;;;;39.83;15.25;;;;;;;;;;5067435;28;20500;-77
2023/03/06 11:52:47;;;;;;;39.80;14.75;;;;;;;;;;5066240;28;20036;-77
2023/03/06 11:55:15;;;;;;;43.95;16.20;;;;;;;;;;5062890;28;20032;-78
2023/03/06 11:58:10;;;;;;;38.65;14.88;;;;;;;;;;5065308;28;20031;-77
2023/03/06 12:00:56;;;;;;;44.03;16.25;;;;;;;;;;5043234;28;20036;-77
2023/03/06 12:03:30;;;;;;;40.80;15.23;;;;;;;;;;5053591;28;21361;-80
2023/03/06 12:06:02;;;;;;;41.80;15.05;;;;;;;;;;5051497;28;20029;-78
2023/03/06 12:09:03;;;;;;;40.83;15.27;;;;;;;;;;5068418;28;20068;-78
2023/03/06 12:11:38;;;;;;;45.78;16.45;;;;;;;;;;5090452;28;20024;-77
2023/03/06 12:14:29;;;;;;;41.20;14.48;;;;;;;;;;5072722;28;20113;-77
2023/03/06 12:17:02;;;;;;;40.65;14.63;;;;;;;;;;5062006;28;20090;-79
2023/03/06 12:19:37;;;;;;;42.33;14.85;;;;;;;;;;5062326;28;20033;-78
2023/03/06 12:22:27;;;;;;;41.42;14.38;;;;;;;;;;5063509;28;20025;-78
2023/03/06 12:25:38;;;;;;;39.33;14.18;;;;;;;;;;5066966;28;20288;-79
2023/03/06 12:28:39;;;;;;;46.00;16.48;;;;;;;;;;5057411;28;20097;-78
2023/03/06 12:31:14;;;;;;;39.25;13.38;;;;;;;;;;5045391;28;20393;-79
2023/03/06 12:33:58;;;;;;;40.83;14.68;;;;;;;;;;5087566;28;20350;-78
2023/03/06 12:36:38;;;;;;;37.58;14.48;;;;;;;;;;5068629;28;20032;-79
2023/03/06 12:39:16;;;;;;;39.47;14.48;;;;;;;;;;5044685;28;20171;-78
2023/03/06 12:41:51;;;;;;;40.67;14.98;;;;;;;;;;5071063;28;20017;-79
2023/03/06 12:44:22;;;;;;;36.65;14.80;;;;;;;;;;5068047;28;20059;-78
2023/03/06 12:46:57;;;;;;;37.60;13.35;;;;;;;;;;5070593;28;20110;-79
2023/03/06 12:49:27;;;;;;;37.05;13.77;;;;;;;;;;5069612;28;20031;-78
2023/03/06 12:51:53;;;;;;;31.95;13.32;;;;;;;;;;5086260;28;20452;-78
2023/03/06 12:54:21;;;;;;;33.22;13.13;;;;;;;;;;5073550;28;20033;-78
2023/03/06 12:56:47;;;;;;;33.95;12.80;;;;;;;;;;5068366;28;20378;-77
2023/03/06 12:59:37;;;;;;;34.38;15.35;;;;;;;;;;5070335;28;20035;-80
2023/03/06 13:02:27;;;;;;;39.28;13.50;;;;;;;;;;5070964;28;20035;-78
2023/03/06 13:05:11;;;;;;;33.90;13.32;;;;;;;;;;5080087;28;20035;-79
2023/03/06 13:07:54;;;;;;;34.72;13.45;;;;;;;;;;5073985;28;20446;-78
2023/03/06 13:10:32;;;;;;;33.63;13.40;;;;;;;;;;5076768;28;20112;-79
2023/03/06 13:12:59;;;;;;;39.63;12.63;;;;;;;;;;5072466;28;20025;-78
2023/03/06 13:15:31;;;;;;;32.20;13.15;;;;;;;;;;5072526;28;20044;-77
2023/03/06 13:17:57;;;;;;;35.42;13.15;;;;;;;;;;5089621;28;20347;-78
2023/03/06 13:20:22;;;;;;;29.15;12.20;;;;;;;;;;5069789;28;20055;-78
2023/03/06 13:22:48;;;;;;;29.80;12.30;;;;;;;;;;5090811;28;20054;-79
2023/03/06 13:25:19;;;;;;;32.13;12.52;;;;;;;;;;5088150;28;20058;-76
2023/03/06 13:27:51;;;;;;;27.73;11.98;;;;;;;;;;5085539;28;20133;-76
2023/03/06 13:30:35;;;;;;;36.72;13.45;;;;;;;;;;5092839;28;20436;-76
2023/03/06 13:33:00;;;;;;;31.73;12.55;;;;;;;;;;5080236;28;20045;-76
2023/03/06 13:35:29;;;;;;;32.38;12.75;;;;;;;;;;5075167;28;20079;-78
2023/03/06 13:37:55;;;;;;;29.25;12.07;;;;;;;;;;5075531;28;20366;-77
2023/03/06 13:40:33;;;;;;;31.77;13.05;;;;;;;;;;5071418;28;20024;-77
2023/03/06 13:43:18;;;;;;;27.85;12.38;;;;;;;;;;5058547;28;20025;-77
2023/03/06 13:45:44;;;;;;;32.22;12.60;;;;;;;;;;5076029;28;20374;-79
2023/03/06 13:48:42;;;;;;;31.30;11.38;;;;;;;;;;5075956;28;20459;-78
2023/03/06 13:51:22;;;;;;;28.92;12.40;;;;;;;;;;5059500;28;20045;-77
2023/03/06 13:54:09;;;;;;;29.85;11.98;;;;;;;;;;5021948;28;20028;-77
2023/03/06 13:56:46;;;;;;;29.35;11.77;;;;;;;;;;5054205;28;20049;-78
2023/03/06 13:59:21;;;;;;;26.88;11.30;;;;;;;;;;5054925;28;20025;-78
2023/03/06 14:02:11;;;;;;;27.33;10.98;;;;;;;;;;5054906;28;20036;-78
2023/03/06 14:04:53;;;;;;;24.40;10.93;;;;;;;;;;5054920;28;20028;-78
2023/03/06 14:07:22;;;;;;;25.40;11.45;;;;;;;;;;5071164;28;20060;-77
2023/03/06 14:10:00;;;;;;;32.05;10.68;;;;;;;;;;5055477;28;20119;-78
2023/03/06 14:12:37;;;;;;;31.75;12.88;;;;;;;;;;5022863;28;20040;-77
2023/03/06 14:15:16;;;;;;;30.40;11.70;;;;;;;;;;5071932;28;20056;-77
2023/03/06 14:18:07;;;;;;;30.55;12.32;;;;;;;;;;5039008;28;20032;-77
2023/03/06 14:20:38;;;;;;;35.97;13.65;;;;;;;;;;5050176;28;20515;-77
2023/03/06 14:23:41;;;;;;;32.50;13.20;;;;;;;;;;5069284;28;20044;-78
2023/03/06 14:26:22;;;;;;;34.00;12.80;;;;;;;;;;5073712;28;20345;-78
2023/03/06 14:28:51;;;;;;;29.88;12.68;;;;;;;;;;5057074;28;20060;-78
2023/03/06 14:31:40;;;;;;;32.15;12.98;;;;;;;;;;5075265;28;20033;-78
2023/03/06 14:34:06;;;;;;;32.42;12.23;;;;;;;;;;5075136;28;20143;-77
2023/03/06 14:36:42;;;;;;;27.55;12.25;;;;;;;;;;5057304;28;20024;-78
2023/03/06 14:39:11;;;;;;;33.60;11.63;;;;;;;;;;5040874;28;20074;-77
2023/03/06 14:41:37;;;;;;;32.70;11.70;;;;;;;;;;5070504;28;20021;-75